createdAt,value
2022-12-04T00:01:29.274Z,14.70
2022-12-04T00:07:31.254Z,14.93
2022-12-04T00:13:37.562Z,15.53
2022-12-04T00:19:39.453Z,13.47
2022-12-04T00:25:42.021Z,13.27
2022-12-04T00:31:43.997Z,12.80
2022-12-04T00:37:45.932Z,14.57
2022-12-04T00:43:48.002Z,13.53
2022-12-04T00:49:53.658Z,12.10
2022-12-04T00:56:00.377Z,12.87
2022-12-04T01:02:14.189Z,13.70
2022-12-04T01:08:16.224Z,12.33
2022-12-04T01:14:36.008Z,11.93
2022-12-04T01:20:38.025Z,12.47
2022-12-04T01:26:39.960Z,13.80
2022-12-04T01:32:41.903Z,12.10
2022-12-04T01:38:44.364Z,11.97
2022-12-04T01:45:37.840Z,11.77
2022-12-04T01:51:48.196Z,11.67
2022-12-04T01:57:52.982Z,12.13
2022-12-04T02:04:00.543Z,14.00
2022-12-04T02:10:06.441Z,13.07
2022-12-04T02:16:33.750Z,13.70
2022-12-04T02:23:38.689Z,10.87
2022-12-04T02:30:08.172Z,13.20
2022-12-04T02:36:23.373Z,12.77
2022-12-04T02:42:51.525Z,12.50
2022-12-04T02:48:58.274Z,12.70
2022-12-04T02:55:14.274Z,12.47
2022-12-04T03:01:23.991Z,12.63
2022-12-04T03:07:38.769Z,12.30
2022-12-04T03:13:50.840Z,10.83
2022-12-04T03:19:58.881Z,11.97
2022-12-04T03:26:12.519Z,10.53
2022-12-04T03:32:43.266Z,10.50
2022-12-04T03:39:32.241Z,10.33
2022-12-04T03:46:04.183Z,9.70
2022-12-04T03:52:41.765Z,11.17
2022-12-04T03:58:54.729Z,9.90
2022-12-04T04:04:59.094Z,10.40
2022-12-04T04:11:53.148Z,10.70
2022-12-04T04:18:15.375Z,9.80
2022-12-04T04:24:43.425Z,10.63
2022-12-04T04:30:48.328Z,9.07
2022-12-04T04:36:56.089Z,9.83
2022-12-04T04:49:37.008Z,8.93
2022-12-04T04:55:39.660Z,9.60
2022-12-04T05:01:45.758Z,9.73
2022-12-04T05:07:47.771Z,9.20
2022-12-04T05:13:49.774Z,10.00
2022-12-04T05:19:58.243Z,9.10
2022-12-04T05:26:03.125Z,10.67
2022-12-04T05:32:11.186Z,10.00
2022-12-04T05:38:13.158Z,11.40
2022-12-04T05:44:15.461Z,11.27
2022-12-04T05:50:17.458Z,11.10
2022-12-04T05:56:19.380Z,10.63
2022-12-04T06:02:24.519Z,10.47
2022-12-04T06:08:26.492Z,11.10
2022-12-04T06:14:36.224Z,11.23
2022-12-04T06:20:41.224Z,10.63
2022-12-04T06:33:22.215Z,11.50
2022-12-04T06:39:24.139Z,10.67
2022-12-04T06:45:29.918Z,9.73
2022-12-04T06:51:39.961Z,10.37
2022-12-04T06:57:41.890Z,11.73
2022-12-04T07:03:49.506Z,12.83
2022-12-04T07:09:56.365Z,12.90
2022-12-04T07:16:02.194Z,13.17
2022-12-04T07:22:04.247Z,11.97
2022-12-04T07:28:06.336Z,12.43
2022-12-04T07:34:08.261Z,13.33
2022-12-04T07:40:10.971Z,13.87
2022-12-04T07:46:21.707Z,13.63
2022-12-04T07:52:23.698Z,13.83
2022-12-04T07:58:26.010Z,13.57
2022-12-04T08:04:28.122Z,14.07
2022-12-04T08:10:30.175Z,15.53
2022-12-04T08:16:34.117Z,17.17
2022-12-04T08:22:49.430Z,14.20
2022-12-04T08:28:54.630Z,14.90
2022-12-04T08:34:56.546Z,14.53
2022-12-04T08:41:08.429Z,15.07
2022-12-04T08:47:10.351Z,14.80
2022-12-04T08:53:18.378Z,14.90
2022-12-04T08:59:20.290Z,16.07
2022-12-04T09:05:22.483Z,15.90
2022-12-04T09:11:28.223Z,15.90
2022-12-04T09:17:35.291Z,15.87
2022-12-04T09:23:39.094Z,14.77
2022-12-04T09:29:40.999Z,15.57
2022-12-04T09:35:42.889Z,16.30
2022-12-04T09:42:20.564Z,15.47
2022-12-04T09:48:36.018Z,17.67
2022-12-04T09:54:44.829Z,15.50
2022-12-04T10:00:52.838Z,14.70
2022-12-04T10:07:18.724Z,14.60
2022-12-04T10:14:17.059Z,15.50
2022-12-04T10:20:25.086Z,16.30
2022-12-04T10:26:39.430Z,13.30
2022-12-04T10:39:42.211Z,16.23
2022-12-04T10:45:46.893Z,15.07
2022-12-04T10:51:49.260Z,14.07
2022-12-04T10:57:51.807Z,14.13
2022-12-04T11:04:08.263Z,13.77
2022-12-04T11:10:43.014Z,15.20
2022-12-04T11:17:01.394Z,14.80
2022-12-04T11:23:04.783Z,14.73
2022-12-04T11:29:21.493Z,14.43
2022-12-04T11:35:36.903Z,14.37
2022-12-04T11:41:39.318Z,14.87
2022-12-04T11:47:41.339Z,15.80
2022-12-04T11:53:48.936Z,16.80
2022-12-04T11:59:59.425Z,14.80
2022-12-04T12:06:53.811Z,15.57
2022-12-04T12:13:24.180Z,15.57
2022-12-04T12:20:01.160Z,16.50
2022-12-04T12:26:18.393Z,16.53
2022-12-04T12:32:49.068Z,15.20
2022-12-04T12:39:11.207Z,15.27
2022-12-04T12:45:44.186Z,16.80
2022-12-04T12:52:16.121Z,14.87
2022-12-04T12:58:47.322Z,17.70
2022-12-04T13:04:56.582Z,14.83
2022-12-04T13:11:07.474Z,16.33
2022-12-04T13:17:38.125Z,15.73
2022-12-04T13:24:13.539Z,15.83
2022-12-04T13:31:09.568Z,15.77
2022-12-04T13:37:50.229Z,17.63
2022-12-04T13:44:07.009Z,16.90
2022-12-04T13:50:29.912Z,17.97
2022-12-04T13:56:33.854Z,16.77
2022-12-04T14:02:37.832Z,15.17
2022-12-04T14:08:46.231Z,15.97
2022-12-04T14:15:08.292Z,16.00
2022-12-04T14:21:24.999Z,16.53
2022-12-04T14:27:42.371Z,15.10
2022-12-04T14:33:51.471Z,15.40
2022-12-04T14:39:56.479Z,16.00
2022-12-04T14:46:25.430Z,18.00
2022-12-04T14:52:50.043Z,16.83
2022-12-04T14:58:52.347Z,15.60
2022-12-04T15:04:55.041Z,15.20
2022-12-04T15:11:35.236Z,16.43
2022-12-04T15:17:37.168Z,18.00
2022-12-04T15:23:41.610Z,15.70
2022-12-04T15:29:48.302Z,16.07
2022-12-04T15:36:12.500Z,15.50
2022-12-04T15:42:26.614Z,15.20
2022-12-04T15:48:31.840Z,16.33
2022-12-04T15:54:38.280Z,14.40
2022-12-04T16:00:42.857Z,16.50
2022-12-04T16:06:50.879Z,14.00
2022-12-04T16:13:05.838Z,15.90
2022-12-04T16:19:42.038Z,14.50
2022-12-04T16:25:51.048Z,15.83
2022-12-04T16:32:02.898Z,15.50
2022-12-04T16:38:16.477Z,13.80
2022-12-04T16:44:28.590Z,14.10
2022-12-04T16:50:36.686Z,13.50
2022-12-04T16:56:38.676Z,13.60
2022-12-04T17:02:41.265Z,14.83
2022-12-04T17:08:43.642Z,14.00
2022-12-04T17:14:45.759Z,14.00
2022-12-04T17:20:49.871Z,15.00
2022-12-04T17:26:59.479Z,15.43
2022-12-04T17:33:01.351Z,13.87
2022-12-04T17:39:05.807Z,12.80
2022-12-04T17:45:10.668Z,14.10
2022-12-04T17:51:20.047Z,14.80
2022-12-04T17:57:25.190Z,13.27
2022-12-04T18:03:27.142Z,13.90
2022-12-04T18:09:29.276Z,13.13
2022-12-04T18:15:31.588Z,12.73
2022-12-04T18:21:38.248Z,13.97
2022-12-04T18:27:41.977Z,13.23
2022-12-04T18:33:48.367Z,11.17
2022-12-04T18:39:51.031Z,12.47
2022-12-04T18:46:07.723Z,12.50
2022-12-04T18:52:13.009Z,12.60
2022-12-04T18:58:28.775Z,11.77
2022-12-04T19:04:33.061Z,11.80
2022-12-04T19:10:35.098Z,12.70
2022-12-04T19:16:37.180Z,11.80
2022-12-04T19:22:49.109Z,11.40
2022-12-04T19:29:00.993Z,10.50
2022-12-04T19:35:03.017Z,11.53
2022-12-04T19:41:19.756Z,12.03
2022-12-04T19:47:32.407Z,12.07
2022-12-04T19:53:40.642Z,11.80
2022-12-04T19:59:46.640Z,11.70
2022-12-04T20:05:56.110Z,11.53
2022-12-04T20:11:58.227Z,10.37
2022-12-04T20:18:04.232Z,10.53
2022-12-04T20:30:28.789Z,11.40
2022-12-04T20:36:35.753Z,10.93
2022-12-04T20:42:49.993Z,9.30
2022-12-04T20:48:53.733Z,8.80
2022-12-04T20:54:58.600Z,10.10
2022-12-04T21:01:26.546Z,11.47
2022-12-04T21:07:31.737Z,10.17
2022-12-04T21:13:52.331Z,10.57
2022-12-04T21:20:00.375Z,9.23
2022-12-04T21:26:06.438Z,9.93
2022-12-04T21:32:11.092Z,10.67
2022-12-04T21:38:13.032Z,9.37
2022-12-04T21:44:22.601Z,10.97
2022-12-04T21:50:24.564Z,9.57
2022-12-04T21:56:27.125Z,9.77
2022-12-04T22:02:30.884Z,10.07
2022-12-04T22:08:37.134Z,9.90
2022-12-04T22:14:39.010Z,9.67
2022-12-04T22:20:42.554Z,10.70
2022-12-04T22:26:44.504Z,10.50
2022-12-04T22:32:46.490Z,9.80
2022-12-04T22:39:11.067Z,9.50
2022-12-04T22:45:16.199Z,9.07
2022-12-04T22:51:24.203Z,9.73
2022-12-04T22:57:26.318Z,10.63
2022-12-04T23:03:28.285Z,9.90
2022-12-04T23:09:47.540Z,10.30
2022-12-04T23:15:50.130Z,9.77
2022-12-04T23:21:56.955Z,9.57
2022-12-04T23:28:00.207Z,11.90
2022-12-04T23:40:19.889Z,12.17
2022-12-04T23:52:47.987Z,9.83
2022-12-04T23:58:53.329Z,11.27
